WXM80 ListenWXM80 Stop

You find our weather info also at:

UK Metoffice

WeatherCloud

Weather Underground

Northeastern Weather Network

AWEKAS

Citizen Weather Observer Program (CWOP)

HAMweather, WeatherForYou, PWS Weather


Weather Underground History page Text

Daily Summary for March 15, 2017 Units:  English    Metric   Both
« Previous Day
Next Day »
Daily Weekly Monthly Yearly Custom
  High: Low: Average:
Temperature: 28.8 °F 21.2 °F 24.9 °F
Dew Point: 18.7 °F 11.9 °F 15.1 °F
Humidity: 76 % 56 % 66 %
Wind Speed: 15.4 mph 2.8 mph 8.9 mph
Wind Gust: 28.8 mph - -
Wind:- - West
Pressure: 29.79 in 29.43 in -
Precipitation: 0.01 in    
Historical Graphs
 
 
Tabular Data for March 15, 2017
Time Temperature Dew Point Pressure Wind Wind Speed Wind Gust Humidity Rainfall Rate (Hourly)
00:03 23.8 °F 17.0 °F 29.43 in WSW 6.1 mph 15.0 mph 75 % 0.00 in
00:08 23.7 °F 16.9 °F 29.44 in West 4.0 mph 11.5 mph 75 % 0.00 in
00:14 23.6 °F 17.1 °F 29.43 in WSW 7.6 mph 10.4 mph 76 % 0.00 in
00:19 23.5 °F 16.7 °F 29.44 in SW 9.3 mph 16.1 mph 75 % 0.00 in
00:24 23.5 °F 17.0 °F 29.43 in West 6.2 mph 10.4 mph 76 % 0.00 in
00:29 23.4 °F 16.9 °F 29.43 in SW 6.0 mph 11.5 mph 76 % 0.00 in
00:34 23.3 °F 16.5 °F 29.43 in WSW 4.8 mph 11.5 mph 75 % 0.00 in
00:39 23.2 °F 16.4 °F 29.43 in WSW 8.2 mph 17.3 mph 75 % 0.00 in
00:44 23.1 °F 16.0 °F 29.43 in West 9.5 mph 17.3 mph 74 % 0.00 in
00:49 23.0 °F 16.3 °F 29.43 in West 9.6 mph 16.1 mph 75 % 0.00 in
00:54 23.0 °F 16.3 °F 29.43 in NW 5.6 mph 12.0 mph 75 % 0.00 in
00:59 22.9 °F 16.2 °F 29.43 in WSW 6.3 mph 11.5 mph 75 % 0.00 in
01:04 22.8 °F 15.8 °F 29.44 in WNW 9.7 mph 20.7 mph 74 % 0.00 in
01:09 22.7 °F 15.7 °F 29.44 in WNW 5.8 mph 9.2 mph 74 % 0.00 in
01:14 22.6 °F 15.2 °F 29.44 in NNW 9.6 mph 18.0 mph 73 % 0.00 in
01:19 22.5 °F 15.1 °F 29.45 in West 5.9 mph 16.1 mph 73 % 0.00 in
01:24 22.4 °F 15.1 °F 29.45 in WSW 8.6 mph 13.8 mph 73 % 0.00 in
01:30 22.4 °F 14.7 °F 29.45 in SSW 8.7 mph 15.0 mph 72 % 0.00 in
01:35 22.2 °F 14.5 °F 29.45 in SW 9.6 mph 17.3 mph 72 % 0.00 in
01:40 22.1 °F 14.4 °F 29.46 in West 9.7 mph 11.5 mph 72 % 0.00 in
01:45 22.1 °F 14.8 °F 29.46 in SW 5.4 mph 11.5 mph 73 % 0.00 in
01:50 22.0 °F 14.3 °F 29.47 in SW 9.5 mph 18.4 mph 72 % 0.00 in
01:55 22.0 °F 15.0 °F 29.47 in SW 9.6 mph 13.0 mph 74 % 0.01 in
02:00 22.0 °F 14.3 °F 29.48 in WSW 6.2 mph 16.1 mph 72 % 0.01 in
02:05 22.0 °F 14.7 °F 29.48 in WSW 2.8 mph 4.6 mph 73 % 0.01 in
02:10 22.0 °F 14.3 °F 29.48 in West 8.7 mph 16.1 mph 72 % 0.01 in
02:15 22.0 °F 14.0 °F 29.48 in West 8.6 mph 13.8 mph 71 % 0.01 in
02:20 22.0 °F 14.3 °F 29.48 in WNW 11.7 mph 18.4 mph 72 % 0.01 in
02:25 22.0 °F 14.0 °F 29.48 in WNW 11.4 mph 19.6 mph 71 % 0.01 in
02:30 22.0 °F 14.0 °F 29.47 in West 8.4 mph 16.1 mph 71 % 0.01 in
02:35 21.9 °F 14.3 °F 29.48 in SW 9.5 mph 15.0 mph 72 % 0.01 in
02:40 21.9 °F 14.3 °F 29.48 in WNW 7.3 mph 18.4 mph 72 % 0.01 in
02:46 21.8 °F 13.8 °F 29.48 in WSW 8.5 mph 20.7 mph 71 % 0.01 in
02:51 21.7 °F 13.7 °F 29.48 in WSW 8.0 mph 12.7 mph 71 % 0.01 in
02:56 21.7 °F 13.7 °F 29.48 in NW 6.3 mph 8.1 mph 71 % 0.00 in
03:01 21.7 °F 14.1 °F 29.48 in NW 10.1 mph 19.6 mph 72 % 0.00 in
03:06 21.6 °F 13.6 °F 29.48 in West 9.2 mph 24.0 mph 71 % 0.00 in
03:11 21.6 °F 13.6 °F 29.48 in West 10.3 mph 12.7 mph 71 % 0.00 in
03:16 21.6 °F 13.6 °F 29.48 in NW 10.1 mph 20.7 mph 71 % 0.00 in
03:21 21.5 °F 13.2 °F 29.48 in WNW 10.5 mph 17.3 mph 70 % 0.00 in
03:26 21.5 °F 13.2 °F 29.48 in West 4.6 mph 11.5 mph 70 % 0.00 in
03:31 21.4 °F 13.1 °F 29.49 in WNW 7.5 mph 11.5 mph 70 % 0.00 in
03:36 21.4 °F 13.1 °F 29.48 in West 7.4 mph 12.7 mph 70 % 0.00 in
03:41 21.4 °F 13.1 °F 29.49 in West 11.3 mph 24.2 mph 70 % 0.00 in
03:46 21.3 °F 13.0 °F 29.49 in West 11.6 mph 20.7 mph 70 % 0.00 in
03:51 21.3 °F 13.0 °F 29.49 in West 10.7 mph 17.3 mph 70 % 0.00 in
03:56 21.3 °F 12.7 °F 29.50 in NW 8.4 mph 17.0 mph 69 % 0.00 in
04:01 21.3 °F 12.7 °F 29.50 in WNW 9.6 mph 17.3 mph 69 % 0.00 in
04:06 21.3 °F 12.4 °F 29.50 in WNW 11.3 mph 18.4 mph 68 % 0.00 in
04:11 21.3 °F 12.4 °F 29.50 in West 10.3 mph 18.4 mph 68 % 0.00 in
04:16 21.2 °F 12.3 °F 29.49 in WNW 11.5 mph 23.0 mph 68 % 0.00 in
04:21 21.2 °F 12.6 °F 29.49 in WSW 5.7 mph 10.4 mph 69 % 0.00 in
04:26 21.2 °F 12.6 °F 29.50 in WNW 9.2 mph 16.0 mph 69 % 0.00 in
04:31 21.2 °F 12.6 °F 29.50 in WSW 8.7 mph 18.4 mph 69 % 0.00 in
04:36 21.2 °F 12.6 °F 29.50 in NNW 10.9 mph 19.6 mph 69 % 0.00 in
04:41 21.2 °F 12.6 °F 29.50 in WSW 9.9 mph 19.6 mph 69 % 0.00 in
04:46 21.2 °F 12.6 °F 29.50 in WNW 10.3 mph 16.1 mph 69 % 0.00 in
04:51 21.2 °F 12.6 °F 29.50 in West 10.6 mph 21.0 mph 69 % 0.00 in
04:56 21.2 °F 12.6 °F 29.50 in WNW 9.1 mph 20.7 mph 69 % 0.00 in
05:01 21.2 °F 12.6 °F 29.51 in WNW 7.0 mph 12.7 mph 69 % 0.00 in
05:06 21.2 °F 12.9 °F 29.51 in WSW 8.1 mph 12.7 mph 70 % 0.00 in
05:11 21.2 °F 12.9 °F 29.51 in WNW 10.7 mph 15.0 mph 70 % 0.00 in
05:16 21.3 °F 12.7 °F 29.51 in WSW 8.4 mph 14.0 mph 69 % 0.00 in
05:21 21.4 °F 12.8 °F 29.51 in WNW 12.5 mph 21.9 mph 69 % 0.00 in
05:26 21.4 °F 12.8 °F 29.51 in NW 14.2 mph 20.0 mph 69 % 0.00 in
05:32 21.4 °F 13.1 °F 29.51 in WNW 8.8 mph 17.0 mph 70 % 0.00 in
05:37 21.5 °F 13.2 °F 29.51 in NW 9.0 mph 20.7 mph 70 % 0.00 in
05:42 21.5 °F 13.2 °F 29.51 in WNW 9.7 mph 12.7 mph 70 % 0.00 in
05:47 21.6 °F 13.3 °F 29.51 in SW 6.8 mph 12.7 mph 70 % 0.00 in
05:52 21.6 °F 13.0 °F 29.51 in NW 5.6 mph 12.0 mph 69 % 0.00 in
05:57 21.6 °F 12.7 °F 29.51 in West 9.4 mph 19.6 mph 68 % 0.00 in
06:02 21.6 °F 12.7 °F 29.51 in WSW 7.2 mph 19.6 mph 68 % 0.00 in
06:07 21.6 °F 12.7 °F 29.52 in WSW 7.9 mph 14.0 mph 68 % 0.00 in
06:12 21.6 °F 13.0 °F 29.52 in West 12.6 mph 19.6 mph 69 % 0.00 in
06:17 21.6 °F 12.7 °F 29.52 in West 8.1 mph 13.8 mph 68 % 0.00 in
06:22 21.6 °F 12.7 °F 29.52 in WSW 9.3 mph 19.0 mph 68 % 0.00 in
06:27 21.6 °F 12.7 °F 29.51 in WSW 8.8 mph 19.6 mph 68 % 0.00 in
06:32 21.5 °F 12.9 °F 29.52 in SW 8.0 mph 11.5 mph 69 % 0.00 in
06:37 21.5 °F 13.2 °F 29.52 in West 10.2 mph 18.4 mph 70 % 0.00 in
06:42 21.5 °F 12.9 °F 29.52 in WNW 13.2 mph 23.0 mph 69 % 0.00 in
06:47 21.5 °F 12.6 °F 29.52 in SW 7.7 mph 11.5 mph 68 % 0.00 in
06:52 21.5 °F 12.2 °F 29.52 in West 10.6 mph 19.6 mph 67 % 0.00 in
06:57 21.5 °F 12.2 °F 29.52 in West 11.9 mph 17.0 mph 67 % 0.00 in
07:03 21.5 °F 12.2 °F 29.52 in NW 11.1 mph 20.0 mph 67 % 0.00 in
07:08 21.5 °F 12.2 °F 29.53 in West 7.0 mph 15.0 mph 67 % 0.00 in
07:13 21.5 °F 11.9 °F 29.53 in WSW 7.0 mph 22.0 mph 66 % 0.00 in
07:18 21.5 °F 12.2 °F 29.53 in West 8.8 mph 16.1 mph 67 % 0.00 in
07:23 21.6 °F 12.3 °F 29.53 in West 11.3 mph 23.0 mph 67 % 0.00 in
07:28 21.6 °F 12.0 °F 29.53 in WNW 7.9 mph 17.3 mph 66 % 0.00 in
07:33 21.7 °F 12.4 °F 29.53 in WSW 11.6 mph 18.4 mph 67 % 0.00 in
07:38 21.9 °F 12.3 °F 29.53 in West 8.3 mph 12.7 mph 66 % 0.00 in
07:43 22.1 °F 12.8 °F 29.53 in SW 10.7 mph 16.1 mph 67 % 0.00 in
07:49 22.2 °F 12.9 °F 29.53 in WSW 10.0 mph 19.6 mph 67 % 0.00 in
07:54 22.4 °F 13.4 °F 29.53 in NW 7.8 mph 19.6 mph 68 % 0.00 in
07:59 22.6 °F 14.0 °F 29.53 in WNW 6.6 mph 11.5 mph 69 % 0.00 in
08:04 22.7 °F 13.7 °F 29.53 in WSW 7.2 mph 12.7 mph 68 % 0.00 in
08:09 22.8 °F 13.8 °F 29.54 in West 11.8 mph 19.0 mph 68 % 0.00 in
08:14 22.9 °F 13.9 °F 29.53 in WNW 12.6 mph 24.2 mph 68 % 0.00 in
08:19 23.1 °F 14.1 °F 29.54 in WNW 8.5 mph 16.0 mph 68 % 0.00 in
08:24 23.3 °F 14.3 °F 29.54 in WSW 9.9 mph 19.6 mph 68 % 0.00 in
08:29 23.6 °F 13.9 °F 29.54 in WSW 12.5 mph 21.9 mph 66 % 0.00 in
08:34 23.6 °F 14.2 °F 29.53 in West 7.6 mph 12.7 mph 67 % 0.00 in
08:39 23.6 °F 13.9 °F 29.53 in WNW 10.4 mph 19.6 mph 66 % 0.00 in
08:44 23.6 °F 14.2 °F 29.53 in West 4.6 mph 15.0 mph 67 % 0.00 in
08:49 23.7 °F 14.0 °F 29.53 in NW 11.4 mph 19.6 mph 66 % 0.00 in
08:54 23.7 °F 13.6 °F 29.53 in SW 11.2 mph 19.6 mph 65 % 0.00 in
08:59 23.6 °F 13.2 °F 29.53 in West 6.8 mph 20.7 mph 64 % 0.00 in
09:04 23.7 °F 13.3 °F 29.53 in West 9.8 mph 19.6 mph 64 % 0.00 in
09:09 24.1 °F 14.0 °F 29.54 in NW 7.8 mph 11.5 mph 65 % 0.00 in
09:14 24.3 °F 13.9 °F 29.54 in NNW 8.2 mph 11.5 mph 64 % 0.00 in
09:20 24.7 °F 14.6 °F 29.54 in NW 8.6 mph 11.5 mph 65 % 0.00 in
09:25 24.8 °F 14.0 °F 29.54 in WSW 11.5 mph 20.0 mph 63 % 0.00 in
09:30 24.9 °F 14.4 °F 29.54 in West 10.6 mph 17.3 mph 64 % 0.00 in
09:35 24.8 °F 14.0 °F 29.54 in WNW 10.2 mph 19.6 mph 63 % 0.00 in
09:40 24.9 °F 14.1 °F 29.54 in West 8.6 mph 24.2 mph 63 % 0.00 in
09:45 25.0 °F 13.8 °F 29.54 in West 11.1 mph 21.9 mph 62 % 0.00 in
09:50 25.3 °F 14.1 °F 29.54 in West 6.3 mph 19.6 mph 62 % 0.00 in
09:55 25.5 °F 13.5 °F 29.54 in SSW 14.2 mph 28.8 mph 60 % 0.00 in
10:00 25.6 °F 14.4 °F 29.54 in NW 7.6 mph 18.4 mph 62 % 0.00 in
10:05 25.6 °F 14.0 °F 29.54 in West 12.1 mph 21.9 mph 61 % 0.00 in
10:10 25.6 °F 14.0 °F 29.54 in WNW 10.1 mph 18.4 mph 61 % 0.00 in
10:15 25.7 °F 14.8 °F 29.54 in NW 6.0 mph 15.0 mph 63 % 0.00 in
10:20 25.8 °F 14.2 °F 29.54 in SW 8.4 mph 16.1 mph 61 % 0.00 in
10:25 25.9 °F 14.7 °F 29.54 in NW 10.2 mph 13.8 mph 62 % 0.00 in
10:30 26.1 °F 14.5 °F 29.54 in WSW 6.7 mph 13.0 mph 61 % 0.00 in
10:35 26.4 °F 14.4 °F 29.55 in WSW 11.0 mph 18.4 mph 60 % 0.00 in
10:40 26.6 °F 14.2 °F 29.54 in West 9.0 mph 17.3 mph 59 % 0.00 in
10:45 26.7 °F 14.3 °F 29.54 in West 9.1 mph 19.6 mph 59 % 0.00 in
10:50 27.0 °F 14.6 °F 29.54 in WNW 6.5 mph 16.1 mph 59 % 0.00 in
10:56 27.2 °F 14.0 °F 29.54 in WSW 11.7 mph 19.6 mph 57 % 0.00 in
11:01 27.4 °F 14.9 °F 29.53 in West 11.1 mph 18.0 mph 59 % 0.00 in
11:06 27.3 °F 14.5 °F 29.54 in SSW 7.6 mph 16.1 mph 58 % 0.00 in
11:11 27.4 °F 15.3 °F 29.54 in NW 10.9 mph 20.7 mph 60 % 0.00 in
11:16 27.2 °F 14.8 °F 29.54 in West 11.4 mph 16.1 mph 59 % 0.00 in
11:21 27.0 °F 14.9 °F 29.54 in WNW 8.8 mph 17.3 mph 60 % 0.00 in
11:26 27.2 °F 14.8 °F 29.54 in WNW 5.6 mph 16.1 mph 59 % 0.00 in
11:31 27.4 °F 16.4 °F 29.54 in WSW 10.1 mph 19.6 mph 63 % 0.00 in
11:36 27.7 °F 16.7 °F 29.53 in WNW 7.0 mph 10.4 mph 63 % 0.00 in
11:41 27.8 °F 15.7 °F 29.53 in NW 9.9 mph 18.4 mph 60 % 0.00 in
11:46 28.0 °F 15.5 °F 29.53 in West 8.7 mph 16.1 mph 59 % 0.00 in
11:51 27.9 °F 15.8 °F 29.53 in West 9.3 mph 17.3 mph 60 % 0.00 in
11:56 27.7 °F 15.6 °F 29.52 in West 10.9 mph 15.0 mph 60 % 0.00 in
12:01 27.5 °F 14.6 °F 29.53 in SW 10.8 mph 17.3 mph 58 % 0.00 in
12:07 27.8 °F 14.9 °F 29.53 in WSW 10.5 mph 23.0 mph 58 % 0.00 in
12:12 27.9 °F 15.4 °F 29.53 in West 11.4 mph 16.1 mph 59 % 0.00 in
12:17 27.6 °F 15.5 °F 29.53 in WSW 9.5 mph 11.5 mph 60 % 0.00 in
12:22 27.2 °F 15.1 °F 29.53 in West 7.0 mph 7.0 mph 60 % 0.00 in
12:27 27.3 °F 15.6 °F 29.53 in West 12.9 mph 24.2 mph 61 % 0.00 in
12:32 27.2 °F 15.5 °F 29.53 in NW 7.3 mph 19.6 mph 61 % 0.00 in
12:37 27.2 °F 15.5 °F 29.53 in WSW 11.7 mph 16.1 mph 61 % 0.00 in
12:42 27.2 °F 15.1 °F 29.53 in West 8.6 mph 17.3 mph 60 % 0.00 in
12:47 27.6 °F 15.9 °F 29.53 in WNW 6.6 mph 13.8 mph 61 % 0.00 in
12:52 27.8 °F 15.7 °F 29.53 in West 13.4 mph 24.2 mph 60 % 0.00 in
12:57 28.1 °F 16.7 °F 29.53 in WNW 6.6 mph 11.5 mph 62 % 0.00 in
13:07 27.5 °F 18.0 °F 29.53 in WSW 8.6 mph 16.1 mph 67 % 0.00 in
13:12 27.6 °F 18.1 °F 29.53 in SW 6.0 mph 14.0 mph 67 % 0.00 in
13:17 27.2 °F 17.0 °F 29.53 in West 11.5 mph 18.4 mph 65 % 0.00 in
13:27 26.9 °F 18.1 °F 29.52 in SW 5.0 mph 11.5 mph 69 % 0.00 in
13:32 26.7 °F 17.2 °F 29.52 in WNW 7.7 mph 11.5 mph 67 % 0.00 in
13:37 26.7 °F 15.4 °F 29.52 in WSW 10.3 mph 23.0 mph 62 % 0.00 in
13:42 27.0 °F 14.9 °F 29.52 in West 8.1 mph 15.0 mph 60 % 0.00 in
13:47 27.2 °F 16.6 °F 29.52 in SW 10.4 mph 19.6 mph 64 % 0.00 in
13:52 27.4 °F 17.5 °F 29.53 in WSW 6.7 mph 10.4 mph 66 % 0.00 in
13:57 27.9 °F 17.3 °F 29.52 in WSW 12.6 mph 19.6 mph 64 % 0.00 in
14:03 28.0 °F 17.0 °F 29.52 in WSW 7.5 mph 11.5 mph 63 % 0.00 in
14:08 28.0 °F 18.1 °F 29.52 in WSW 6.6 mph 15.0 mph 66 % 0.00 in
14:13 27.9 °F 18.4 °F 29.52 in SW 7.6 mph 16.1 mph 67 % 0.00 in
14:18 27.9 °F 18.7 °F 29.52 in WSW 10.5 mph 18.4 mph 68 % 0.00 in
14:23 27.9 °F 18.0 °F 29.52 in WSW 10.0 mph 19.0 mph 66 % 0.00 in
14:28 27.9 °F 17.6 °F 29.52 in West 10.2 mph 16.1 mph 65 % 0.00 in
14:33 28.0 °F 15.9 °F 29.52 in WSW 5.5 mph 12.7 mph 60 % 0.00 in
14:38 28.4 °F 15.9 °F 29.52 in WSW 8.8 mph 19.6 mph 59 % 0.00 in
14:43 28.6 °F 15.7 °F 29.52 in West 7.6 mph 14.0 mph 58 % 0.00 in
14:48 28.8 °F 15.5 °F 29.52 in SW 8.2 mph 11.5 mph 57 % 0.00 in
14:53 28.8 °F 15.1 °F 29.52 in West 9.9 mph 20.7 mph 56 % 0.00 in
14:58 28.7 °F 15.4 °F 29.52 in WNW 10.1 mph 26.5 mph 57 % 0.00 in
15:03 28.5 °F 15.2 °F 29.53 in WNW 5.9 mph 15.0 mph 57 % 0.00 in
15:08 28.5 °F 15.6 °F 29.52 in WSW 7.8 mph 16.1 mph 58 % 0.00 in
15:13 28.5 °F 16.0 °F 29.53 in WNW 8.4 mph 17.3 mph 59 % 0.00 in
15:18 28.3 °F 15.4 °F 29.53 in West 10.0 mph 19.6 mph 58 % 0.00 in
15:23 27.8 °F 15.7 °F 29.54 in WNW 14.2 mph 19.0 mph 60 % 0.00 in
15:28 27.3 °F 16.4 °F 29.53 in WSW 7.5 mph 18.4 mph 63 % 0.00 in
15:33 27.2 °F 15.9 °F 29.54 in SW 9.4 mph 20.7 mph 62 % 0.00 in
15:38 27.2 °F 15.5 °F 29.54 in NW 8.2 mph 17.0 mph 61 % 0.00 in
15:43 27.2 °F 15.5 °F 29.54 in WSW 8.3 mph 17.3 mph 61 % 0.00 in
15:49 27.2 °F 15.9 °F 29.54 in WNW 7.8 mph 11.5 mph 62 % 0.00 in
15:53 27.1 °F 15.4 °F 29.55 in WNW 12.1 mph 20.7 mph 61 % 0.00 in
15:59 27.0 °F 16.1 °F 29.55 in WNW 8.5 mph 13.8 mph 63 % 0.00 in
16:04 27.1 °F 16.5 °F 29.55 in WSW 9.4 mph 19.0 mph 64 % 0.00 in
16:09 27.1 °F 16.9 °F 29.55 in WNW 6.9 mph 11.5 mph 65 % 0.00 in
16:14 27.0 °F 17.1 °F 29.55 in West 11.5 mph 17.0 mph 66 % 0.00 in
16:19 27.0 °F 17.1 °F 29.55 in West 10.2 mph 15.0 mph 66 % 0.00 in
16:24 26.9 °F 17.0 °F 29.56 in West 8.1 mph 19.6 mph 66 % 0.00 in
16:29 27.0 °F 17.5 °F 29.56 in NW 7.3 mph 16.1 mph 67 % 0.00 in
16:34 26.6 °F 16.8 °F 29.56 in NNW 7.9 mph 17.0 mph 66 % 0.00 in
16:39 26.4 °F 17.3 °F 29.56 in West 5.5 mph 10.4 mph 68 % 0.00 in
16:44 26.6 °F 17.8 °F 29.56 in NW 9.0 mph 17.0 mph 69 % 0.00 in
16:49 26.7 °F 17.6 °F 29.57 in WSW 8.2 mph 17.3 mph 68 % 0.00 in
16:54 26.8 °F 17.3 °F 29.57 in West 8.0 mph 11.5 mph 67 % 0.00 in
16:59 26.9 °F 17.7 °F 29.57 in WSW 8.8 mph 12.7 mph 68 % 0.00 in
17:04 26.6 °F 18.5 °F 29.58 in WSW 10.4 mph 17.3 mph 71 % 0.00 in
17:09 26.1 °F 18.6 °F 29.58 in WSW 11.9 mph 18.0 mph 73 % 0.00 in
17:14 25.9 °F 18.4 °F 29.58 in West 11.3 mph 15.0 mph 73 % 0.00 in
17:19 25.8 °F 18.3 °F 29.58 in WSW 12.7 mph 21.9 mph 73 % 0.00 in
17:24 25.8 °F 18.0 °F 29.58 in West 9.5 mph 15.0 mph 72 % 0.00 in
17:29 25.9 °F 18.1 °F 29.58 in NNW 5.7 mph 11.5 mph 72 % 0.00 in
17:34 26.1 °F 18.3 °F 29.58 in WNW 7.4 mph 11.5 mph 72 % 0.00 in
17:39 26.4 °F 18.3 °F 29.59 in SW 8.8 mph 17.3 mph 71 % 0.00 in
17:44 26.5 °F 17.7 °F 29.59 in WNW 9.3 mph 15.0 mph 69 % 0.00 in
17:49 26.5 °F 18.0 °F 29.59 in NW 5.3 mph 9.2 mph 70 % 0.00 in
17:54 26.4 °F 17.3 °F 29.60 in WSW 6.3 mph 10.4 mph 68 % 0.00 in
17:59 26.3 °F 17.2 °F 29.60 in NNW 10.3 mph 20.7 mph 68 % 0.00 in
18:04 26.2 °F 17.1 °F 29.60 in West 7.5 mph 15.0 mph 68 % 0.00 in
18:09 26.1 °F 17.0 °F 29.60 in WSW 4.8 mph 16.1 mph 68 % 0.00 in
18:14 26.1 °F 17.3 °F 29.61 in West 9.0 mph 13.8 mph 69 % 0.00 in
18:19 26.1 °F 17.3 °F 29.61 in WSW 8.5 mph 16.1 mph 69 % 0.00 in
18:24 26.1 °F 17.0 °F 29.61 in West 4.8 mph 13.0 mph 68 % 0.00 in
18:29 26.1 °F 16.3 °F 29.62 in WSW 11.1 mph 13.8 mph 66 % 0.00 in
18:34 26.1 °F 16.3 °F 29.62 in WSW 9.5 mph 14.0 mph 66 % 0.00 in
18:39 26.0 °F 15.8 °F 29.62 in West 7.7 mph 10.4 mph 65 % 0.00 in
18:44 26.0 °F 15.5 °F 29.62 in NW 9.1 mph 19.6 mph 64 % 0.00 in
18:49 26.0 °F 15.1 °F 29.63 in WNW 12.0 mph 19.6 mph 63 % 0.00 in
18:54 26.1 °F 15.6 °F 29.64 in NW 8.2 mph 13.0 mph 64 % 0.00 in
19:00 26.1 °F 15.9 °F 29.63 in NNW 5.8 mph 21.9 mph 65 % 0.00 in
19:05 26.3 °F 15.8 °F 29.64 in SW 10.2 mph 19.6 mph 64 % 0.00 in
19:10 26.3 °F 15.4 °F 29.64 in WNW 9.1 mph 18.0 mph 63 % 0.00 in
19:15 26.3 °F 15.8 °F 29.64 in West 9.9 mph 16.0 mph 64 % 0.00 in
19:20 26.3 °F 15.4 °F 29.64 in NW 9.9 mph 19.6 mph 63 % 0.00 in
19:25 26.3 °F 16.1 °F 29.65 in NW 9.5 mph 21.0 mph 65 % 0.00 in
19:30 26.2 °F 16.0 °F 29.66 in West 11.2 mph 11.2 mph 65 % 0.00 in
19:35 26.2 °F 15.3 °F 29.66 in NW 10.3 mph 20.7 mph 63 % 0.00 in
19:40 26.2 °F 15.3 °F 29.67 in West 11.4 mph 18.4 mph 63 % 0.00 in
19:45 26.2 °F 15.3 °F 29.66 in WNW 11.8 mph 19.6 mph 63 % 0.00 in
19:50 26.1 °F 14.8 °F 29.67 in WNW 9.5 mph 19.6 mph 62 % 0.00 in
19:55 26.2 °F 14.9 °F 29.67 in WNW 9.2 mph 15.0 mph 62 % 0.00 in
20:00 26.2 °F 14.2 °F 29.68 in West 12.0 mph 24.2 mph 60 % 0.00 in
20:05 26.2 °F 14.2 °F 29.68 in WSW 8.7 mph 20.7 mph 60 % 0.00 in
20:10 26.2 °F 14.6 °F 29.68 in WNW 10.0 mph 17.3 mph 61 % 0.00 in
20:15 26.2 °F 14.2 °F 29.69 in NW 11.1 mph 15.0 mph 60 % 0.00 in
20:20 26.2 °F 14.6 °F 29.69 in WNW 10.0 mph 16.1 mph 61 % 0.00 in
20:25 26.3 °F 15.0 °F 29.70 in WNW 11.0 mph 17.3 mph 62 % 0.00 in
20:30 26.2 °F 14.2 °F 29.70 in West 8.7 mph 18.4 mph 60 % 0.00 in
20:35 26.3 °F 15.0 °F 29.71 in West 10.4 mph 22.0 mph 62 % 0.00 in
20:40 26.3 °F 15.0 °F 29.71 in West 5.9 mph 12.7 mph 62 % 0.00 in
20:45 26.3 °F 15.0 °F 29.72 in NW 7.5 mph 18.4 mph 62 % 0.00 in
20:50 26.2 °F 14.9 °F 29.72 in NNW 6.5 mph 13.8 mph 62 % 0.00 in
20:56 26.2 °F 14.6 °F 29.72 in NW 6.4 mph 12.7 mph 61 % 0.00 in
21:01 26.2 °F 14.6 °F 29.72 in West 15.4 mph 26.0 mph 61 % 0.00 in
21:06 26.3 °F 15.0 °F 29.73 in WSW 10.7 mph 21.9 mph 62 % 0.00 in
21:11 26.3 °F 15.4 °F 29.73 in West 6.8 mph 13.0 mph 63 % 0.00 in
21:16 26.3 °F 15.4 °F 29.73 in WSW 6.9 mph 13.8 mph 63 % 0.00 in
21:21 26.3 °F 15.0 °F 29.74 in WSW 12.2 mph 21.0 mph 62 % 0.00 in
21:26 26.3 °F 15.4 °F 29.74 in West 8.5 mph 17.3 mph 63 % 0.00 in
21:31 26.3 °F 15.4 °F 29.74 in West 5.6 mph 18.4 mph 63 % 0.00 in
21:36 26.2 °F 14.9 °F 29.74 in WNW 9.1 mph 17.3 mph 62 % 0.00 in
21:41 26.2 °F 15.3 °F 29.75 in WNW 8.5 mph 16.0 mph 63 % 0.00 in
21:46 26.2 °F 14.9 °F 29.75 in WSW 7.2 mph 14.0 mph 62 % 0.00 in
21:51 26.3 °F 15.4 °F 29.75 in West 7.4 mph 13.8 mph 63 % 0.00 in
21:56 26.3 °F 15.4 °F 29.76 in WSW 11.4 mph 22.0 mph 63 % 0.00 in
22:01 26.3 °F 15.0 °F 29.76 in NW 9.6 mph 19.6 mph 62 % 0.00 in
22:06 26.4 °F 15.5 °F 29.77 in WNW 8.9 mph 18.4 mph 63 % 0.00 in
22:11 26.4 °F 15.9 °F 29.77 in WNW 7.6 mph 18.4 mph 64 % 0.00 in
22:16 26.5 °F 15.6 °F 29.77 in West 8.0 mph 13.8 mph 63 % 0.00 in
22:21 26.5 °F 16.3 °F 29.77 in WSW 5.7 mph 11.5 mph 65 % 0.00 in
22:26 26.6 °F 16.1 °F 29.77 in West 7.2 mph 23.0 mph 64 % 0.00 in
22:31 26.6 °F 16.4 °F 29.77 in WNW 9.7 mph 20.0 mph 65 % 0.00 in
22:36 26.6 °F 16.8 °F 29.78 in West 10.3 mph 17.3 mph 66 % 0.00 in
22:41 26.6 °F 16.8 °F 29.78 in NW 8.7 mph 15.0 mph 66 % 0.00 in
22:46 26.6 °F 17.1 °F 29.77 in NW 9.9 mph 12.7 mph 67 % 0.00 in
22:51 26.6 °F 16.8 °F 29.78 in WSW 5.0 mph 15.0 mph 66 % 0.00 in
22:56 26.7 °F 17.6 °F 29.78 in NW 7.4 mph 13.0 mph 68 % 0.00 in
23:01 26.7 °F 17.2 °F 29.78 in West 6.6 mph 13.8 mph 67 % 0.00 in
23:06 26.7 °F 17.2 °F 29.78 in WNW 9.6 mph 19.6 mph 67 % 0.00 in
23:11 26.7 °F 16.9 °F 29.78 in NNW 9.3 mph 19.0 mph 66 % 0.00 in
23:16 26.8 °F 17.0 °F 29.78 in WSW 7.9 mph 12.7 mph 66 % 0.00 in
23:21 26.8 °F 16.6 °F 29.78 in West 10.1 mph 17.3 mph 65 % 0.00 in
23:27 26.9 °F 16.7 °F 29.78 in West 9.9 mph 26.0 mph 65 % 0.00 in
23:32 26.9 °F 16.3 °F 29.78 in WSW 7.0 mph 20.7 mph 64 % 0.00 in
23:37 26.9 °F 16.7 °F 29.78 in West 9.9 mph 16.1 mph 65 % 0.00 in
23:42 26.9 °F 16.0 °F 29.78 in WNW 7.5 mph 19.6 mph 63 % 0.00 in
23:47 27.0 °F 16.4 °F 29.79 in NW 8.0 mph 11.5 mph 64 % 0.00 in
23:52 26.9 °F 16.0 °F 29.79 in WSW 7.2 mph 21.9 mph 63 % 0.00 in
23:57 26.9 °F 16.0 °F 29.79 in West 10.3 mph 28.0 mph 63 % 0.00 in
Crab Meadow Weather
Compliments of Weather Underground - 3.25 mb

Script developed by  Jim McMurry - jmcmurry@mwt.net Adapted for the template by  Wim van der Kuil - Leuven-Template.eu

Weather Terms: Relative Humidity - The ratio of the amount of water vapor actually present in the air to the greatest amount possible at the same temperature.